Midland, Maryland
Current Conditions -  °F | °C
As of 9:21 AM on Tuesday 27 Jan 2015 (Local Time) from KCBE Reporting Station
Clear Clear  
Wind Chill: 27°   Ceiling: Unl
Heat Index: 27°   Visibility: 10mi
Dew Point: 18°   Wind: 0mph
Humidity: 69%   Direction: NA
Pressure: 29.91"   Gusts: NA
Location:  39.59°N, 78.95°W
Report Text: KCBE 271421Z AUTO 00000KT 10SM CLR M03/M08 A2991 RMK AO1
Loading
Personal Weather Stations






























Interactive Weather Map New forecast layout! Learn more

10-Day Weather Forecast

Advertisements
Track Severe Weather on mobile